Time;durP1;ratioP1;P1;durP2;ratioP2;P2;SDS_P1;SDS_P2;PMS_P1;PMS_P2;Temp;Humidity;BMP_temperature;BMP_pressure;BME280_temperature;BME280_humidity;BME280_pressure;Samples;Min_cycle;Max_cycle;Signal;HPM_P1;HPM_P2
2022/01/13 00:01:32;;;;;;;379.80;43.60;;;5.00;99.90;;;;;;5069065;28;20126;-55
2022/01/13 00:03:59;;;;;;;389.13;46.20;;;5.10;99.90;;;;;;5069340;28;20110;-53
2022/01/13 00:06:25;;;;;;;390.92;46.42;;;4.90;99.90;;;;;;5069433;28;20041;-55
2022/01/13 00:08:51;;;;;;;414.52;46.70;;;5.00;99.90;;;;;;5068869;28;20506;-51
2022/01/13 00:11:17;;;;;;;373.65;45.35;;;5.20;99.90;;;;;;5069010;28;20502;-53
2022/01/13 00:14:38;;;;;;;382.73;43.72;;;5.00;99.90;;;;;;5072714;28;20056;-54
2022/01/13 00:21:48;;;;;;;441.50;47.22;;;5.10;99.90;;;;;;5072360;28;20082;-54
2022/01/13 00:24:14;;;;;;;404.27;45.58;;;5.10;99.90;;;;;;5071485;28;20447;-53
2022/01/13 00:26:41;;;;;;;409.88;44.25;;;5.10;99.90;;;;;;5072281;28;20127;-53
2022/01/13 00:29:08;;;;;;;426.65;44.28;;;5.20;99.90;;;;;;5072555;28;20049;-53
2022/01/13 00:31:38;;;;;;;414.23;44.15;;;5.50;99.90;;;;;;5072668;28;20068;-52
2022/01/13 00:34:06;;;;;;;450.08;46.67;;;5.00;99.90;;;;;;5072872;28;20037;-54
2022/01/13 00:36:34;;;;;;;469.63;45.65;;;5.10;99.90;;;;;;5072363;28;20048;-55
2022/01/13 00:39:00;;;;;;;466.38;47.13;;;5.20;99.90;;;;;;5085384;28;20406;-54
2022/01/13 00:41:28;;;;;;;457.85;48.58;;;5.00;99.90;;;;;;5092358;28;20035;-54
2022/01/13 00:44:00;;;;;;;449.80;45.88;;;5.00;99.90;;;;;;5092052;28;20094;-55
2022/01/13 00:46:31;;;;;;;467.38;49.40;;;5.00;99.90;;;;;;5092394;28;20040;-54
2022/01/13 00:48:58;;;;;;;441.80;45.25;;;5.00;99.90;;;;;;5092243;28;20367;-51
2022/01/13 00:51:24;;;;;;;399.15;42.90;;;4.80;99.90;;;;;;5090855;28;20564;-55
2022/01/13 00:53:51;;;;;;;457.20;46.28;;;5.80;99.90;;;;;;5092201;28;20043;-51
2022/01/13 00:56:18;;;;;;;389.10;42.13;;;5.00;99.90;;;;;;5092327;28;20105;-54
2022/01/13 00:58:44;;;;;;;417.58;46.80;;;5.00;99.90;;;;;;5091957;28;20424;-53
2022/01/13 01:01:10;;;;;;;362.42;41.17;;;5.00;99.90;;;;;;5091871;28;20102;-54
2022/01/13 01:03:36;;;;;;;369.58;38.72;;;5.80;99.90;;;;;;5091673;28;20074;-54
2022/01/13 01:06:04;;;;;;;338.90;38.17;;;5.30;99.90;;;;;;5091516;28;20127;-54
2022/01/13 01:08:32;;;;;;;412.38;43.38;;;4.90;99.90;;;;;;5091965;28;20101;-52
2022/01/13 01:11:00;;;;;;;399.67;42.70;;;5.10;99.90;;;;;;5091789;28;20072;-53
2022/01/13 01:13:29;;;;;;;379.38;39.75;;;5.10;99.90;;;;;;5091887;28;20439;-52
2022/01/13 01:15:59;;;;;;;400.17;42.35;;;5.60;99.90;;;;;;5091377;28;20051;-55
2022/01/13 01:18:41;;;;;;;403.00;43.20;;;5.00;99.90;;;;;;5091815;28;20124;-54
2022/01/13 01:26:41;;;;;;;341.42;42.67;;;4.80;99.90;;;;;;5091460;28;20137;-55
2022/01/13 01:29:55;;;;;;;296.52;37.47;;;4.80;99.90;;;;;;5091484;28;20509;-52
2022/01/13 01:32:00;;;;;;;305.15;38.78;;;4.90;99.90;;;;;;5082911;28;20052;-54
2022/01/13 01:37:12;;;;;;;251.60;35.72;;;5.20;99.90;;;;;;5091241;28;20055;-52
2022/01/13 01:39:38;;;;;;;250.48;35.97;;;5.60;99.90;;;;;;5090433;28;20390;-53
2022/01/13 01:42:03;;;;;;;295.65;39.88;;;5.20;99.90;;;;;;5090988;28;20048;-55
2022/01/13 01:44:34;;;;;;;292.67;39.05;;;4.80;99.90;;;;;;5091321;28;20084;-54
2022/01/13 01:47:00;;;;;;;244.20;38.60;;;5.70;99.90;;;;;;5091126;28;20530;-55
2022/01/13 01:49:27;;;;;;;239.95;34.63;;;5.20;99.90;;;;;;5091476;28;20043;-54
2022/01/13 01:51:59;;;;;;;242.57;34.97;;;4.90;99.90;;;;;;5090740;28;20036;-54
2022/01/13 01:54:27;;;;;;;274.73;36.42;;;4.90;99.90;;;;;;5091206;28;20040;-54
2022/01/13 01:56:53;;;;;;;239.35;37.88;;;5.00;99.90;;;;;;5090774;28;20048;-53
2022/01/13 01:59:22;;;;;;;287.90;39.40;;;5.10;99.90;;;;;;5090879;28;20047;-55
2022/01/13 02:01:50;;;;;;;273.20;37.03;;;5.00;99.90;;;;;;5090954;28;20115;-54
2022/01/13 02:04:17;;;;;;;279.35;37.65;;;5.20;99.90;;;;;;5090599;28;20098;-54
2022/01/13 02:06:44;;;;;;;228.93;33.17;;;4.90;99.90;;;;;;5090603;28;20497;-54
2022/01/13 02:09:12;;;;;;;220.00;35.45;;;4.80;99.90;;;;;;5090604;28;20052;-55
2022/01/13 02:11:47;;;;;;;224.82;34.55;;;5.00;99.90;;;;;;5090752;28;20068;-55
2022/01/13 02:17:15;;;;;;;208.52;35.17;;;4.90;99.90;;;;;;5073760;28;20044;-50
2022/01/13 02:19:46;;;;;;;237.27;37.15;;;5.40;99.90;;;;;;5090633;28;20040;-54
2022/01/13 02:22:12;;;;;;;281.15;40.28;;;5.10;99.90;;;;;;5090202;28;20161;-54
2022/01/13 02:24:38;;;;;;;229.88;36.63;;;4.90;99.90;;;;;;5090336;28;20119;-55
2022/01/13 02:27:05;;;;;;;234.57;39.03;;;5.00;99.90;;;;;;5090090;28;20047;-52
2022/01/13 02:29:31;;;;;;;239.82;39.55;;;4.80;99.90;;;;;;5090676;28;20066;-53
2022/01/13 02:31:57;;;;;;;236.73;38.08;;;5.00;99.90;;;;;;5090197;28;20062;-53
2022/01/13 02:34:23;;;;;;;295.30;42.88;;;5.10;99.90;;;;;;5090176;28;20052;-53
2022/01/13 02:36:52;;;;;;;254.35;38.03;;;5.00;99.90;;;;;;5090118;28;20055;-53
2022/01/13 02:39:21;;;;;;;263.00;41.45;;;5.10;99.90;;;;;;5088067;28;20506;-54
2022/01/13 02:41:47;;;;;;;217.13;36.17;;;5.00;99.90;;;;;;5090307;28;20426;-54
2022/01/13 02:44:17;;;;;;;226.10;38.67;;;5.20;99.90;;;;;;5089895;28;20092;-53
2022/01/13 02:49:24;;;;;;;251.88;38.67;;;5.80;99.90;;;;;;5089985;28;20082;-54
2022/01/13 02:51:52;;;;;;;218.75;38.67;;;5.00;99.90;;;;;;5090217;28;20040;-55
2022/01/13 02:54:18;;;;;;;231.32;39.70;;;4.90;99.90;;;;;;5090132;28;20047;-54
2022/01/13 02:56:44;;;;;;;195.85;36.47;;;5.20;99.90;;;;;;5089797;28;20153;-52
2022/01/13 02:59:12;;;;;;;187.85;37.92;;;5.80;99.90;;;;;;5089862;28;20036;-54
2022/01/13 03:01:39;;;;;;;206.38;37.33;;;5.10;99.90;;;;;;5089906;28;20070;-54
2022/01/13 03:04:07;;;;;;;200.57;38.55;;;5.10;99.90;;;;;;5089457;28;20413;-54
2022/01/13 03:06:37;;;;;;;203.00;39.00;;;5.50;99.90;;;;;;5089801;28;20508;-54
2022/01/13 03:09:05;;;;;;;193.93;37.72;;;5.70;99.90;;;;;;5089709;28;20044;-54
2022/01/13 03:11:37;;;;;;;184.00;35.00;;;4.90;99.90;;;;;;5088500;28;20051;-54
2022/01/13 03:14:10;;;;;;;159.82;35.65;;;5.80;99.90;;;;;;5089770;28;20048;-54
2022/01/13 03:16:39;;;;;;;156.43;34.58;;;4.80;99.90;;;;;;5089832;28;20055;-53
2022/01/13 03:19:05;;;;;;;172.82;35.67;;;5.00;99.90;;;;;;5089583;28;20433;-54
2022/01/13 03:21:30;;;;;;;186.60;37.15;;;5.20;99.90;;;;;;5090379;28;20493;-53
2022/01/13 03:23:56;;;;;;;191.45;38.65;;;5.10;99.90;;;;;;5089907;28;20446;-53
2022/01/13 03:26:22;;;;;;;180.60;36.05;;;5.30;99.90;;;;;;5089607;28;20044;-52
2022/01/13 03:29:04;;;;;;;184.05;34.67;;;5.10;99.90;;;;;;5089677;28;20397;-54
2022/01/13 03:31:30;;;;;;;205.25;37.17;;;5.20;99.90;;;;;;5089516;28;20051;-54
2022/01/13 03:33:55;;;;;;;220.30;37.30;;;5.10;99.90;;;;;;5089629;28;20044;-55
2022/01/13 03:36:21;;;;;;;235.63;39.75;;;5.80;99.90;;;;;;5089318;28;20121;-55
2022/01/13 03:38:47;;;;;;;231.77;39.10;;;5.10;99.90;;;;;;5087077;28;20570;-54
2022/01/13 03:41:13;;;;;;;250.45;39.60;;;5.00;99.90;;;;;;5089155;28;20569;-53
2022/01/13 03:43:39;;;;;;;243.57;37.58;;;4.90;99.90;;;;;;5089565;28;20048;-54
2022/01/13 03:46:06;;;;;;;243.48;38.42;;;5.00;99.90;;;;;;5089289;28;20051;-54
2022/01/13 03:48:33;;;;;;;223.82;34.90;;;4.80;99.90;;;;;;5093019;28;20032;-53
2022/01/13 03:50:59;;;;;;;203.98;34.42;;;5.10;99.90;;;;;;5093527;28;20117;-55
2022/01/13 03:53:27;;;;;;;247.80;40.13;;;5.00;99.90;;;;;;5093012;28;20052;-54
2022/01/13 03:56:30;;;;;;;239.27;36.03;;;5.00;99.90;;;;;;5092053;28;20048;-55
2022/01/13 03:59:02;;;;;;;;;;;4.80;99.90;;;;;;5094148;28;20118;-55
2022/01/13 04:01:47;;;;;;;263.17;36.07;;;4.80;99.90;;;;;;5093163;28;19916;-55
2022/01/13 04:04:12;;;;;;;209.23;30.08;;;5.00;99.90;;;;;;5092743;28;20293;-54
2022/01/13 04:06:38;;;;;;;213.80;35.33;;;5.10;99.90;;;;;;5093206;28;20119;-54
2022/01/13 04:09:28;;;;;;;225.88;34.40;;;5.90;99.90;;;;;;5092921;28;20390;-54
2022/01/13 04:11:54;;;;;;;235.60;37.15;;;4.70;99.90;;;;;;5093781;28;20486;-54
2022/01/13 04:14:28;;;;;;;222.00;33.60;;;5.30;99.90;;;;;;5093155;28;20055;-54
2022/01/13 04:16:54;;;;;;;243.15;35.95;;;4.90;99.90;;;;;;5092099;28;20080;-55
2022/01/13 04:19:20;;;;;;;228.70;36.47;;;4.60;99.90;;;;;;5092501;28;20093;-55
2022/01/13 04:21:46;;;;;;;230.90;36.60;;;4.90;99.90;;;;;;5092914;28;20038;-53
2022/01/13 04:24:12;;;;;;;218.95;36.38;;;4.70;99.90;;;;;;5092724;28;20043;-54
2022/01/13 04:26:43;;;;;;;237.48;37.40;;;4.80;99.90;;;;;;5092555;28;20082;-55
2022/01/13 04:31:36;;;;;;;254.02;35.33;;;4.70;99.90;;;;;;5092728;28;20054;-54
2022/01/13 04:34:02;;;;;;;232.00;35.08;;;5.00;99.90;;;;;;5092491;28;20051;-55
2022/01/13 04:36:28;;;;;;;227.07;37.65;;;4.80;99.90;;;;;;5092216;28;20040;-52
2022/01/13 04:38:54;;;;;;;227.25;32.88;;;5.00;99.90;;;;;;5090243;28;20051;-54
2022/01/13 04:41:30;;;;;;;250.57;35.00;;;4.80;99.90;;;;;;5092450;28;20057;-53
2022/01/13 04:43:57;;;;;;;257.80;36.83;;;4.80;99.90;;;;;;5092661;28;20054;-55
2022/01/13 04:46:23;;;;;;;237.63;36.55;;;4.80;99.90;;;;;;5092056;28;20115;-53
2022/01/13 04:48:49;;;;;;;195.93;31.10;;;4.90;99.90;;;;;;5091108;28;20048;-54
2022/01/13 04:51:14;;;;;;;217.27;35.38;;;4.80;99.90;;;;;;5092711;28;20611;-54
2022/01/13 04:53:40;;;;;;;219.98;35.35;;;4.90;99.90;;;;;;5092219;28;20045;-55
2022/01/13 04:56:12;;;;;;;223.82;36.55;;;4.80;99.90;;;;;;5092195;28;20039;-53
2022/01/13 04:58:38;;;;;;;249.07;36.45;;;4.70;99.90;;;;;;5090887;28;20048;-54
2022/01/13 05:01:04;;;;;;;219.45;38.70;;;4.80;99.90;;;;;;5092283;28;20044;-55
2022/01/13 05:03:30;;;;;;;245.70;38.70;;;4.70;99.90;;;;;;5091685;28;20044;-55
2022/01/13 05:05:56;;;;;;;212.70;34.35;;;4.70;99.90;;;;;;5092315;28;20051;-53
2022/01/13 05:08:22;;;;;;;220.98;36.70;;;4.70;99.90;;;;;;5090799;28;20414;-53
2022/01/13 05:10:48;;;;;;;196.27;33.65;;;4.70;99.90;;;;;;5091949;28;20044;-51
2022/01/13 05:13:14;;;;;;;213.18;34.38;;;4.90;99.90;;;;;;5091794;28;20043;-54
2022/01/13 05:15:43;;;;;;;170.80;30.98;;;4.70;99.90;;;;;;5091916;28;20048;-54
2022/01/13 05:18:45;;;;;;;212.63;35.45;;;4.70;99.90;;;;;;5092387;28;20048;-55
2022/01/13 05:21:21;;;;;;;208.18;35.90;;;4.50;99.90;;;;;;5091808;28;20075;-52
2022/01/13 05:23:47;;;;;;;208.75;36.22;;;5.20;99.90;;;;;;5090880;28;20044;-42
2022/01/13 05:26:12;;;;;;;193.35;31.70;;;4.60;99.90;;;;;;5067310;28;20048;-41
2022/01/13 05:28:40;;;;;;;231.50;37.03;;;4.70;99.90;;;;;;5070346;28;20067;-41
2022/01/13 05:31:07;;;;;;;193.23;34.17;;;5.30;99.90;;;;;;5071942;28;20077;-56
2022/01/13 05:33:32;;;;;;;188.30;32.83;;;5.40;99.90;;;;;;5073851;28;20123;-50
2022/01/13 05:36:00;;;;;;;201.52;33.92;;;4.50;99.90;;;;;;5073668;28;20115;-41
2022/01/13 05:38:26;;;;;;;203.40;35.05;;;4.70;99.90;;;;;;5054466;28;20047;-49
2022/01/13 05:40:53;;;;;;;191.25;35.47;;;4.20;99.90;;;;;;5072029;28;20492;-58
2022/01/13 05:43:19;;;;;;;226.80;37.38;;;5.40;99.90;;;;;;5072838;28;20044;-56
2022/01/13 05:45:45;;;;;;;208.57;37.80;;;5.00;99.90;;;;;;5070892;28;20043;-48
2022/01/13 05:48:10;;;;;;;188.15;33.10;;;4.70;99.90;;;;;;5073763;28;20074;-50
2022/01/13 05:50:36;;;;;;;225.25;37.28;;;4.70;99.90;;;;;;5070672;28;20623;-51
2022/01/13 05:53:03;;;;;;;203.63;37.17;;;4.70;99.90;;;;;;5071996;28;20536;-51
2022/01/13 05:55:28;;;;;;;200.70;34.45;;;5.50;99.90;;;;;;5070832;28;20056;-50
2022/01/13 05:57:55;;;;;;;201.77;36.80;;;4.90;99.90;;;;;;5074078;28;20093;-55
2022/01/13 06:00:22;;;;;;;208.07;36.92;;;4.80;99.90;;;;;;5074000;28;20037;-56
2022/01/13 06:02:48;;;;;;;221.07;39.10;;;4.80;99.90;;;;;;5073097;28;20048;-56
2022/01/13 06:05:14;;;;;;;210.13;33.10;;;4.80;99.90;;;;;;5071078;28;20087;-49
2022/01/13 06:07:40;;;;;;;245.45;38.97;;;4.70;99.90;;;;;;5069893;28;20041;-56
2022/01/13 06:10:09;;;;;;;235.25;37.42;;;4.80;99.90;;;;;;5069568;28;20488;-57
2022/01/13 06:12:37;;;;;;;232.68;40.35;;;4.50;99.90;;;;;;5072483;28;20107;-54
2022/01/13 06:15:09;;;;;;;273.15;42.83;;;4.70;99.90;;;;;;5089541;28;20044;-44
2022/01/13 06:17:36;;;;;;;227.25;35.30;;;4.50;99.90;;;;;;5071305;28;20052;-44
2022/01/13 06:20:05;;;;;;;273.60;40.65;;;4.60;99.90;;;;;;5070874;28;20044;-45
2022/01/13 06:22:30;;;;;;;234.45;40.30;;;4.50;99.90;;;;;;5071060;28;20166;-44
2022/01/13 06:24:56;;;;;;;236.15;37.95;;;4.50;99.90;;;;;;5070594;28;20112;-44
2022/01/13 06:27:23;;;;;;;256.23;38.83;;;4.70;99.90;;;;;;5071188;28;20036;-44
2022/01/13 06:29:52;;;;;;;227.52;38.53;;;4.70;99.90;;;;;;5070738;28;20178;-44
2022/01/13 06:32:19;;;;;;;224.18;33.78;;;4.60;99.90;;;;;;5070962;28;20125;-44
2022/01/13 06:34:45;;;;;;;238.10;37.17;;;4.80;99.90;;;;;;5070915;28;20087;-43
2022/01/13 06:37:11;;;;;;;213.07;35.97;;;4.70;99.90;;;;;;5070390;28;20504;-45
2022/01/13 06:39:37;;;;;;;296.10;41.78;;;4.70;99.90;;;;;;5089368;28;20606;-44
2022/01/13 06:42:03;;;;;;;242.20;39.08;;;4.70;99.90;;;;;;5091265;28;20131;-44
2022/01/13 06:44:29;;;;;;;250.18;38.35;;;4.50;99.90;;;;;;5090797;28;20040;-45
2022/01/13 06:46:54;;;;;;;238.48;34.67;;;4.50;99.90;;;;;;5090749;28;20129;-44
2022/01/13 06:49:20;;;;;;;228.70;36.72;;;4.60;99.90;;;;;;5090562;28;20089;-45
2022/01/13 06:51:46;;;;;;;236.70;38.80;;;4.60;99.90;;;;;;5090430;28;20389;-46
2022/01/13 06:54:12;;;;;;;247.18;40.28;;;4.70;99.90;;;;;;5090363;28;20401;-45
2022/01/13 06:56:37;;;;;;;221.43;38.40;;;4.70;99.90;;;;;;5090588;28;20036;-45
2022/01/13 06:59:09;;;;;;;232.75;38.53;;;4.60;99.90;;;;;;5090498;28;20481;-44
2022/01/13 07:01:35;;;;;;;234.10;38.30;;;4.80;99.90;;;;;;5090691;28;20044;-44
2022/01/13 07:04:01;;;;;;;236.90;38.00;;;4.70;99.90;;;;;;5090078;28;20056;-44
2022/01/13 07:06:27;;;;;;;196.68;35.00;;;4.50;99.90;;;;;;5090955;28;20458;-44
2022/01/13 07:08:52;;;;;;;201.38;35.67;;;4.80;99.90;;;;;;5090165;28;20077;-45
2022/01/13 07:11:18;;;;;;;213.63;37.92;;;4.70;99.90;;;;;;5090668;28;20401;-44
2022/01/13 07:13:44;;;;;;;231.00;37.97;;;4.70;99.90;;;;;;5090432;28;20044;-44
2022/01/13 07:16:09;;;;;;;203.60;34.08;;;4.80;99.90;;;;;;5090171;28;20040;-44
2022/01/13 07:18:38;;;;;;;249.45;39.13;;;4.80;99.90;;;;;;5090137;28;20036;-43
2022/01/13 07:21:06;;;;;;;239.10;39.40;;;4.70;99.90;;;;;;5089349;28;20120;-44
2022/01/13 07:23:32;;;;;;;199.70;31.58;;;4.80;99.90;;;;;;5090351;28;20112;-44
2022/01/13 07:25:58;;;;;;;177.48;32.58;;;4.90;99.90;;;;;;5090179;28;20134;-44
2022/01/13 07:28:23;;;;;;;210.50;34.97;;;4.70;99.90;;;;;;5090255;28;20123;-44
2022/01/13 07:30:50;;;;;;;236.40;38.22;;;5.00;99.90;;;;;;5089903;28;20445;-45
2022/01/13 07:33:15;;;;;;;201.43;36.10;;;5.10;99.90;;;;;;5090260;28;20043;-44
2022/01/13 07:35:42;;;;;;;215.32;38.65;;;5.00;99.90;;;;;;5090179;28;20048;-44
2022/01/13 07:38:07;;;;;;;205.13;38.78;;;4.80;99.90;;;;;;5087401;28;20056;-44
2022/01/13 07:40:34;;;;;;;200.90;36.22;;;5.00;99.90;;;;;;5090295;28;20048;-44
2022/01/13 07:43:00;;;;;;;199.43;35.88;;;4.80;99.90;;;;;;5089686;28;20089;-44
2022/01/13 07:45:26;;;;;;;196.73;36.85;;;4.90;99.90;;;;;;5090093;28;20044;-44
2022/01/13 07:47:51;;;;;;;189.57;35.10;;;5.20;99.90;;;;;;5089857;28;20119;-44
2022/01/13 07:50:17;;;;;;;221.10;38.78;;;5.00;99.90;;;;;;5089708;28;20119;-44
2022/01/13 07:52:43;;;;;;;221.25;38.05;;;4.80;99.90;;;;;;5090402;28;20040;-44
2022/01/13 07:55:10;;;;;;;225.23;37.28;;;5.10;99.90;;;;;;5089973;28;20058;-44
2022/01/13 07:57:36;;;;;;;193.60;34.75;;;4.70;99.90;;;;;;5089798;28;20569;-44
2022/01/13 08:00:04;;;;;;;223.50;38.35;;;5.10;99.90;;;;;;5089826;28;20048;-44
2022/01/13 08:02:30;;;;;;;208.52;35.40;;;4.70;99.90;;;;;;5090005;28;20188;-44
2022/01/13 08:04:56;;;;;;;218.82;37.88;;;4.80;99.90;;;;;;5089235;28;20122;-44
2022/01/13 08:07:22;;;;;;;189.48;34.38;;;4.90;99.90;;;;;;5089886;28;20051;-44
2022/01/13 08:09:47;;;;;;;203.23;38.17;;;5.10;99.90;;;;;;5089605;28;20074;-45
2022/01/13 08:12:13;;;;;;;236.30;40.20;;;5.00;99.90;;;;;;5078365;28;20044;-44
2022/01/13 08:14:39;;;;;;;193.93;34.55;;;5.10;99.90;;;;;;5067484;28;20040;-45
2022/01/13 08:17:07;;;;;;;218.70;39.28;;;5.20;99.90;;;;;;5087203;28;20131;-45
2022/01/13 08:19:45;;;;;;;238.02;38.53;;;5.10;99.90;;;;;;5089892;28;20093;-44
2022/01/13 08:22:15;;;;;;;195.10;38.95;;;5.10;99.90;;;;;;5089733;28;20040;-45
2022/01/13 08:24:41;;;;;;;222.52;38.40;;;5.10;99.90;;;;;;5089824;28;20086;-45
2022/01/13 08:27:07;;;;;;;216.13;39.80;;;5.50;99.90;;;;;;5089568;28;20048;-45
2022/01/13 08:29:33;;;;;;;201.70;37.75;;;5.10;99.90;;;;;;5089937;28;20276;-44
2022/01/13 08:31:58;;;;;;;199.27;38.20;;;5.70;99.90;;;;;;5089701;28;20048;-45
2022/01/13 08:34:24;;;;;;;179.00;34.70;;;5.70;99.90;;;;;;5092883;28;20044;-45
2022/01/13 08:36:50;;;;;;;169.68;34.70;;;5.50;99.90;;;;;;5093139;28;20044;-44
2022/01/13 08:39:15;;;;;;;215.90;39.35;;;5.40;99.90;;;;;;5075106;28;20536;-45
2022/01/13 08:41:41;;;;;;;193.65;38.75;;;5.60;99.90;;;;;;5072468;28;20041;-45
2022/01/13 08:44:08;;;;;;;203.95;40.08;;;5.30;99.90;;;;;;5072593;28;20063;-44
2022/01/13 08:46:34;;;;;;;178.13;34.42;;;5.20;99.90;;;;;;5072979;28;20100;-44
2022/01/13 08:48:59;;;;;;;194.68;39.80;;;5.40;99.90;;;;;;5072625;28;20383;-44
2022/01/13 08:51:25;;;;;;;195.88;37.13;;;5.20;99.90;;;;;;5072502;28;20097;-44
2022/01/13 08:53:51;;;;;;;197.82;38.17;;;5.80;99.90;;;;;;5072073;28;20566;-48
2022/01/13 08:56:19;;;;;;;203.07;37.90;;;5.30;99.90;;;;;;5084117;28;20040;-45
2022/01/13 08:58:46;;;;;;;189.98;36.75;;;5.50;99.90;;;;;;5083488;28;20040;-45
2022/01/13 09:01:12;;;;;;;217.68;40.88;;;5.30;99.90;;;;;;5081145;28;20117;-48
2022/01/13 09:03:38;;;;;;;202.13;40.95;;;5.30;99.90;;;;;;5079800;28;20048;-45
2022/01/13 09:06:04;;;;;;;219.63;40.88;;;5.60;99.90;;;;;;5081657;28;20116;-48
2022/01/13 09:08:30;;;;;;;202.45;37.97;;;5.40;99.90;;;;;;5066588;28;20082;-47
2022/01/13 09:10:56;;;;;;;209.68;40.78;;;6.10;99.90;;;;;;5072375;28;20122;-45
2022/01/13 09:13:22;;;;;;;204.68;40.40;;;5.50;99.90;;;;;;5071914;28;20090;-49
2022/01/13 09:15:59;;;;;;;198.27;37.63;;;5.30;99.90;;;;;;5072170;28;20063;-45
2022/01/13 09:19:08;;;;;;;215.45;41.15;;;6.30;99.90;;;;;;5072455;28;20036;-45
2022/01/13 09:21:18;;;;;;;214.63;39.83;;;5.50;99.90;;;;;;5068483;28;20048;-45
2022/01/13 09:23:44;;;;;;;192.18;36.80;;;5.60;99.90;;;;;;5071743;28;20043;-44
2022/01/13 09:26:10;;;;;;;197.95;37.80;;;6.10;99.90;;;;;;5071654;28;20116;-44
2022/01/13 09:28:36;;;;;;;201.98;40.30;;;5.60;99.90;;;;;;5072061;28;20063;-45
2022/01/13 09:31:02;;;;;;;213.02;40.60;;;5.60;99.90;;;;;;5071753;28;20052;-44
2022/01/13 09:33:28;;;;;;;227.80;41.50;;;5.40;99.90;;;;;;5072094;28;20048;-45
2022/01/13 09:35:53;;;;;;;223.68;43.38;;;6.30;99.90;;;;;;5071285;28;20121;-44
2022/01/13 09:38:19;;;;;;;216.23;38.45;;;5.70;99.90;;;;;;5078806;28;20044;-44
2022/01/13 09:40:47;;;;;;;210.55;40.63;;;5.70;99.90;;;;;;5091977;28;20101;-44
2022/01/13 09:43:13;;;;;;;219.70;41.38;;;5.90;99.90;;;;;;5091783;28;20125;-44
2022/01/13 09:45:40;;;;;;;248.27;41.50;;;5.50;99.90;;;;;;5091380;28;20044;-45
2022/01/13 09:48:06;;;;;;;203.18;37.53;;;5.50;99.90;;;;;;5091624;28;20044;-45
2022/01/13 09:50:32;;;;;;;231.73;42.67;;;5.80;99.90;;;;;;5092090;28;20093;-44
2022/01/13 09:52:58;;;;;;;250.98;39.58;;;5.50;99.90;;;;;;5091686;28;20118;-44
2022/01/13 09:55:24;;;;;;;199.52;36.53;;;5.80;99.90;;;;;;5091825;28;20042;-44
2022/01/13 09:57:52;;;;;;;221.35;39.97;;;6.10;99.90;;;;;;5092025;28;20040;-45
2022/01/13 10:00:21;;;;;;;208.68;40.22;;;5.70;99.90;;;;;;5091553;28;20107;-44
2022/01/13 10:02:48;;;;;;;195.93;37.05;;;6.40;99.90;;;;;;5091577;28;20124;-44
2022/01/13 10:05:19;;;;;;;194.88;39.00;;;6.00;99.90;;;;;;5091061;28;20084;-46
2022/01/13 10:07:47;;;;;;;211.63;40.05;;;5.90;99.90;;;;;;5091234;28;20059;-44
2022/01/13 10:10:15;;;;;;;217.05;39.50;;;6.20;99.90;;;;;;5091192;28;20032;-44
2022/01/13 10:12:43;;;;;;;202.90;38.80;;;6.30;99.90;;;;;;5091337;28;20039;-44
2022/01/13 10:18:04;;;;;;;168.85;34.88;;;5.70;99.90;;;;;;5091345;28;20062;-44
2022/01/13 10:20:31;;;;;;;161.02;36.10;;;6.20;99.90;;;;;;5091191;28;20032;-45
2022/01/13 10:23:11;;;;;;;216.15;40.35;;;5.80;99.90;;;;;;5091595;28;20040;-44
2022/01/13 10:25:43;;;;;;;172.07;36.03;;;6.00;99.90;;;;;;5091771;28;20047;-44
2022/01/13 10:28:22;;;;;;;180.40;37.35;;;6.50;99.90;;;;;;5091335;28;20098;-44
2022/01/13 10:30:53;;;;;;;179.80;36.90;;;5.80;99.90;;;;;;5091363;28;20051;-45
2022/01/13 10:33:28;;;;;;;160.77;34.53;;;6.10;99.90;;;;;;5090727;28;20540;-45
2022/01/13 10:36:05;;;;;;;168.05;36.72;;;6.00;99.90;;;;;;5090812;28;20104;-44
2022/01/13 10:38:53;;;;;;;159.40;36.22;;;6.70;99.90;;;;;;5088390;28;20052;-44
2022/01/13 10:44:17;;;;;;;156.45;34.95;;;5.90;99.90;;;;;;5090607;28;20566;-44
2022/01/13 10:47:00;;;;;;;170.00;36.88;;;6.60;99.90;;;;;;5090973;28;20062;-44
2022/01/13 10:49:38;;;;;;;170.90;34.78;;;6.30;99.90;;;;;;5090698;28;20109;-44
2022/01/13 10:52:24;;;;;;;141.07;32.03;;;6.00;99.90;;;;;;5090622;28;20075;-44
2022/01/13 10:55:08;;;;;;;172.32;36.38;;;5.90;99.90;;;;;;5090805;28;20070;-45
2022/01/13 10:57:35;;;;;;;160.90;34.10;;;5.90;99.90;;;;;;5089449;28;20126;-44
2022/01/13 11:00:03;;;;;;;132.63;31.77;;;6.10;99.90;;;;;;5090903;28;20043;-45
2022/01/13 11:02:29;;;;;;;160.60;34.80;;;6.20;99.90;;;;;;5090571;28;20420;-45
2022/01/13 11:05:00;;;;;;;144.15;31.00;;;6.90;99.90;;;;;;5090433;28;20047;-45
2022/01/13 11:07:27;;;;;;;151.25;32.00;;;6.20;99.90;;;;;;5090425;28;20087;-45
2022/01/13 11:10:00;;;;;;;141.13;32.30;;;6.20;99.90;;;;;;5090214;28;20371;-44
2022/01/13 11:12:27;;;;;;;145.40;31.42;;;6.20;99.90;;;;;;5089980;28;20044;-45
2022/01/13 11:14:59;;;;;;;140.55;31.63;;;6.30;99.90;;;;;;5090251;28;20044;-44
2022/01/13 11:17:25;;;;;;;147.25;31.55;;;6.40;99.90;;;;;;5090282;28;20066;-44
2022/01/13 11:19:52;;;;;;;150.63;30.88;;;6.30;99.90;;;;;;5090447;28;20119;-44
2022/01/13 11:22:18;;;;;;;142.45;29.10;;;6.40;99.90;;;;;;5090233;28;20036;-44
2022/01/13 11:24:45;;;;;;;146.18;31.13;;;6.10;99.90;;;;;;5090723;28;20123;-44
2022/01/13 11:27:12;;;;;;;147.60;30.88;;;6.10;99.90;;;;;;4382377;28;10000813;-44
2022/01/13 11:29:39;;;;;;;144.82;30.85;;;6.20;99.90;;;;;;5068507;28;20036;-43
2022/01/13 11:32:07;;;;;;;153.02;30.48;;;6.30;99.90;;;;;;5069231;28;20090;-45
2022/01/13 11:34:33;;;;;;;134.80;32.28;;;6.00;99.90;;;;;;5068925;28;20041;-43
2022/01/13 11:36:59;;;;;;;130.65;30.83;;;6.40;99.90;;;;;;5068573;28;20457;-45
2022/01/13 11:39:40;;;;;;;137.35;30.27;;;6.90;99.90;;;;;;5087561;28;20128;-43
2022/01/13 11:42:08;;;;;;;127.40;29.38;;;6.00;99.90;;;;;;5089040;28;20032;-44
2022/01/13 11:44:35;;;;;;;138.88;31.38;;;4.90;99.90;;;;;;5088642;28;20043;-44
2022/01/13 11:47:08;;;;;;;140.35;32.03;;;6.10;99.90;;;;;;5089188;28;20079;-43
2022/01/13 11:52:12;;;;;;;107.78;28.58;;;6.70;99.90;;;;;;5088622;28;20089;-44
2022/01/13 11:54:39;;;;;;;117.00;27.92;;;6.00;99.90;;;;;;5088485;28;20473;-43
2022/01/13 11:57:23;;;;;;;113.85;28.13;;;6.10;99.90;;;;;;5088642;28;20135;-44
2022/01/13 11:59:54;;;;;;;104.85;29.85;;;6.00;99.90;;;;;;5088792;28;20040;-44
2022/01/13 12:02:33;;;;;;;111.50;27.80;;;6.90;99.90;;;;;;5088646;28;20069;-44
2022/01/13 12:05:14;;;;;;;104.90;29.38;;;6.00;99.90;;;;;;5088393;28;20056;-44
2022/01/13 12:07:47;;;;;;;120.15;30.25;;;6.00;99.90;;;;;;5088910;28;20052;-44
2022/01/13 12:10:21;;;;;;;;;;;6.00;99.90;;;;;;5093315;28;20700;-45
2022/01/13 12:12:48;;;;;;;111.72;25.38;;;6.10;99.90;;;;;;5092434;28;20310;-43
2022/01/13 12:15:20;;;;;;;94.80;29.08;;;6.30;99.90;;;;;;5092228;28;20075;-44
2022/01/13 12:17:58;;;;;;;128.27;30.77;;;6.40;99.90;;;;;;5092314;28;20044;-43
2022/01/13 12:23:17;;;;;;;106.47;29.38;;;5.90;99.90;;;;;;5092218;28;20517;-44
2022/01/13 12:25:44;;;;;;;125.32;35.60;;;6.40;99.90;;;;;;5091908;28;20482;-44
2022/01/13 12:28:14;;;;;;;100.03;30.25;;;6.30;99.90;;;;;;5089553;28;20048;-44
2022/01/13 12:30:40;;;;;;;107.18;34.92;;;6.20;99.90;;;;;;5092021;28;20123;-43
2022/01/13 12:33:07;;;;;;;112.45;32.55;;;6.10;99.90;;;;;;5091907;28;20082;-45
2022/01/13 12:35:45;;;;;;;119.03;32.95;;;6.60;99.90;;;;;;5091722;28;20048;-44
2022/01/13 12:38:15;;;;;;;107.93;35.90;;;6.20;99.90;;;;;;5090813;28;20452;-44
2022/01/13 12:40:46;;;;;;;138.93;37.35;;;6.00;99.90;;;;;;5091760;28;20040;-44
2022/01/13 12:46:24;;;;;;;137.05;38.38;;;6.00;99.90;;;;;;5090393;28;20048;-44
2022/01/13 12:48:52;;;;;;;123.45;37.08;;;5.80;99.90;;;;;;5072438;28;20095;-43
2022/01/13 12:51:20;;;;;;;147.38;40.10;;;6.20;99.90;;;;;;5072950;28;20442;-45
2022/01/13 12:53:48;;;;;;;128.40;39.22;;;6.30;99.90;;;;;;5073208;28;20040;-43
2022/01/13 12:56:20;;;;;;;119.95;33.90;;;6.10;99.90;;;;;;5073204;28;20044;-44
2022/01/13 12:58:50;;;;;;;124.38;38.70;;;6.30;99.90;;;;;;5072595;28;20128;-43
2022/01/13 13:01:29;;;;;;;109.05;36.30;;;6.50;99.90;;;;;;5072820;28;20083;-44
2022/01/13 13:04:09;;;;;;;133.65;36.72;;;6.20;99.90;;;;;;5072321;28;20127;-44
2022/01/13 13:06:37;;;;;;;102.22;32.08;;;6.20;99.90;;;;;;5072655;28;20078;-43
2022/01/13 13:09:10;;;;;;;127.28;40.53;;;6.60;99.90;;;;;;5070686;28;20049;-43
2022/01/13 13:11:44;;;;;;;125.15;40.70;;;6.20;99.90;;;;;;5080716;28;20089;-43